sensor_id;sensor_type;location;lat;lon;timestamp;P1;durP1;ratioP1;P2;durP2;ratioP2
1811;SDS011;904;47.814;11.134;2023-02-11T00:00:33;14.48;;;9.32;;
1811;SDS011;904;47.814;11.134;2023-02-11T00:03:00;14.43;;;9.50;;
1811;SDS011;904;47.814;11.134;2023-02-11T00:05:27;14.18;;;9.27;;
1811;SDS011;904;47.814;11.134;2023-02-11T00:07:55;16.40;;;10.07;;
1811;SDS011;904;47.814;11.134;2023-02-11T00:10:23;15.65;;;8.80;;
1811;SDS011;904;47.814;11.134;2023-02-11T00:12:50;12.55;;;8.70;;
1811;SDS011;904;47.814;11.134;2023-02-11T00:15:17;14.77;;;9.65;;
1811;SDS011;904;47.814;11.134;2023-02-11T00:17:45;18.10;;;10.00;;
1811;SDS011;904;47.814;11.134;2023-02-11T00:20:12;14.48;;;8.95;;
1811;SDS011;904;47.814;11.134;2023-02-11T00:22:39;17.98;;;9.02;;
1811;SDS011;904;47.814;11.134;2023-02-11T00:25:08;16.92;;;9.10;;
1811;SDS011;904;47.814;11.134;2023-02-11T00:27:35;20.80;;;11.75;;
1811;SDS011;904;47.814;11.134;2023-02-11T00:30:02;19.25;;;12.48;;
1811;SDS011;904;47.814;11.134;2023-02-11T00:32:30;20.40;;;11.32;;
1811;SDS011;904;47.814;11.134;2023-02-11T00:34:57;19.80;;;10.27;;
1811;SDS011;904;47.814;11.134;2023-02-11T00:37:24;16.90;;;9.25;;
1811;SDS011;904;47.814;11.134;2023-02-11T00:39:51;13.10;;;9.57;;
1811;SDS011;904;47.814;11.134;2023-02-11T00:42:20;16.95;;;11.20;;
1811;SDS011;904;47.814;11.134;2023-02-11T00:44:47;13.40;;;8.15;;
1811;SDS011;904;47.814;11.134;2023-02-11T00:47:14;12.88;;;8.38;;
1811;SDS011;904;47.814;11.134;2023-02-11T00:49:41;15.93;;;8.13;;
1811;SDS011;904;47.814;11.134;2023-02-11T00:52:08;14.45;;;8.20;;
1811;SDS011;904;47.814;11.134;2023-02-11T00:54:35;13.25;;;8.25;;
1811;SDS011;904;47.814;11.134;2023-02-11T00:57:08;17.58;;;9.13;;
1811;SDS011;904;47.814;11.134;2023-02-11T00:59:37;16.92;;;9.35;;
1811;SDS011;904;47.814;11.134;2023-02-11T01:02:06;14.55;;;7.53;;
1811;SDS011;904;47.814;11.134;2023-02-11T01:04:33;17.60;;;9.75;;
1811;SDS011;904;47.814;11.134;2023-02-11T01:07:00;16.15;;;9.20;;
1811;SDS011;904;47.814;11.134;2023-02-11T01:09:27;11.65;;;7.88;;
1811;SDS011;904;47.814;11.134;2023-02-11T01:11:54;18.90;;;9.07;;
1811;SDS011;904;47.814;11.134;2023-02-11T01:14:21;13.07;;;7.45;;
1811;SDS011;904;47.814;11.134;2023-02-11T01:16:49;13.20;;;8.07;;
1811;SDS011;904;47.814;11.134;2023-02-11T01:19:16;15.68;;;8.40;;
1811;SDS011;904;47.814;11.134;2023-02-11T01:21:43;12.45;;;8.25;;
1811;SDS011;904;47.814;11.134;2023-02-11T01:24:12;14.30;;;10.00;;
1811;SDS011;904;47.814;11.134;2023-02-11T01:26:39;11.02;;;7.63;;
1811;SDS011;904;47.814;11.134;2023-02-11T01:29:06;12.45;;;8.13;;
1811;SDS011;904;47.814;11.134;2023-02-11T01:31:33;12.55;;;7.32;;
1811;SDS011;904;47.814;11.134;2023-02-11T01:34:02;13.38;;;7.10;;
1811;SDS011;904;47.814;11.134;2023-02-11T01:36:29;12.25;;;7.97;;
1811;SDS011;904;47.814;11.134;2023-02-11T01:38:56;13.82;;;7.15;;
1811;SDS011;904;47.814;11.134;2023-02-11T01:41:23;12.90;;;8.32;;
1811;SDS011;904;47.814;11.134;2023-02-11T01:43:54;17.73;;;8.82;;
1811;SDS011;904;47.814;11.134;2023-02-11T01:46:24;11.20;;;7.00;;
1811;SDS011;904;47.814;11.134;2023-02-11T01:49:02;13.18;;;8.15;;
1811;SDS011;904;47.814;11.134;2023-02-11T01:51:32;13.80;;;7.43;;
1811;SDS011;904;47.814;11.134;2023-02-11T01:54:04;11.27;;;6.78;;
1811;SDS011;904;47.814;11.134;2023-02-11T01:56:51;12.57;;;8.38;;
1811;SDS011;904;47.814;11.134;2023-02-11T01:59:38;10.57;;;7.13;;
1811;SDS011;904;47.814;11.134;2023-02-11T02:02:11;13.32;;;6.80;;
1811;SDS011;904;47.814;11.134;2023-02-11T02:04:43;11.50;;;6.72;;
1811;SDS011;904;47.814;11.134;2023-02-11T02:07:16;11.10;;;6.80;;
1811;SDS011;904;47.814;11.134;2023-02-11T02:09:51;15.73;;;7.93;;
1811;SDS011;904;47.814;11.134;2023-02-11T02:12:24;11.70;;;7.88;;
1811;SDS011;904;47.814;11.134;2023-02-11T02:14:51;13.23;;;7.45;;
1811;SDS011;904;47.814;11.134;2023-02-11T02:17:53;12.77;;;6.72;;
1811;SDS011;904;47.814;11.134;2023-02-11T02:21:04;11.45;;;7.05;;
1811;SDS011;904;47.814;11.134;2023-02-11T02:24:21;17.52;;;8.48;;
1811;SDS011;904;47.814;11.134;2023-02-11T02:30:11;10.68;;;6.95;;
1811;SDS011;904;47.814;11.134;2023-02-11T02:33:04;13.68;;;6.82;;
1811;SDS011;904;47.814;11.134;2023-02-11T02:35:41;8.90;;;6.43;;
1811;SDS011;904;47.814;11.134;2023-02-11T02:38:14;11.32;;;5.45;;
1811;SDS011;904;47.814;11.134;2023-02-11T02:40:49;10.10;;;7.38;;
1811;SDS011;904;47.814;11.134;2023-02-11T02:43:20;9.98;;;6.20;;
1811;SDS011;904;47.814;11.134;2023-02-11T02:45:50;16.42;;;6.82;;
1811;SDS011;904;47.814;11.134;2023-02-11T02:48:28;12.20;;;7.53;;
1811;SDS011;904;47.814;11.134;2023-02-11T02:51:03;11.93;;;7.95;;
1811;SDS011;904;47.814;11.134;2023-02-11T02:53:40;11.50;;;7.15;;
1811;SDS011;904;47.814;11.134;2023-02-11T02:56:19;7.07;;;5.28;;
1811;SDS011;904;47.814;11.134;2023-02-11T02:59:08;12.45;;;6.38;;
1811;SDS011;904;47.814;11.134;2023-02-11T03:01:48;11.70;;;6.97;;
1811;SDS011;904;47.814;11.134;2023-02-11T03:04:26;10.43;;;6.20;;
1811;SDS011;904;47.814;11.134;2023-02-11T03:07:01;9.57;;;5.75;;
1811;SDS011;904;47.814;11.134;2023-02-11T03:09:32;10.18;;;6.50;;
1811;SDS011;904;47.814;11.134;2023-02-11T03:12:04;9.85;;;5.70;;
1811;SDS011;904;47.814;11.134;2023-02-11T03:14:32;8.43;;;6.82;;
1811;SDS011;904;47.814;11.134;2023-02-11T03:17:02;11.38;;;6.90;;
1811;SDS011;904;47.814;11.134;2023-02-11T03:19:33;12.70;;;6.05;;
1811;SDS011;904;47.814;11.134;2023-02-11T03:22:04;8.35;;;5.65;;
1811;SDS011;904;47.814;11.134;2023-02-11T03:24:34;16.05;;;6.40;;
1811;SDS011;904;47.814;11.134;2023-02-11T03:27:05;8.45;;;5.40;;
1811;SDS011;904;47.814;11.134;2023-02-11T03:29:38;11.40;;;5.80;;
1811;SDS011;904;47.814;11.134;2023-02-11T03:32:11;9.80;;;4.80;;
1811;SDS011;904;47.814;11.134;2023-02-11T03:34:47;9.43;;;5.65;;
1811;SDS011;904;47.814;11.134;2023-02-11T03:37:22;8.50;;;5.18;;
1811;SDS011;904;47.814;11.134;2023-02-11T03:39:54;12.85;;;6.47;;
1811;SDS011;904;47.814;11.134;2023-02-11T03:42:26;9.20;;;5.38;;
1811;SDS011;904;47.814;11.134;2023-02-11T03:45:00;10.05;;;6.63;;
1811;SDS011;904;47.814;11.134;2023-02-11T03:47:31;6.97;;;5.00;;
1811;SDS011;904;47.814;11.134;2023-02-11T03:50:05;10.45;;;5.78;;
1811;SDS011;904;47.814;11.134;2023-02-11T03:52:36;10.75;;;6.60;;
1811;SDS011;904;47.814;11.134;2023-02-11T03:55:05;7.68;;;4.45;;
1811;SDS011;904;47.814;11.134;2023-02-11T03:57:36;6.63;;;4.93;;
1811;SDS011;904;47.814;11.134;2023-02-11T04:00:04;12.40;;;5.65;;
1811;SDS011;904;47.814;11.134;2023-02-11T04:02:33;11.52;;;5.18;;
1811;SDS011;904;47.814;11.134;2023-02-11T04:05:01;7.90;;;4.35;;
1811;SDS011;904;47.814;11.134;2023-02-11T04:07:31;10.07;;;5.38;;
1811;SDS011;904;47.814;11.134;2023-02-11T04:09:59;9.60;;;5.07;;
1811;SDS011;904;47.814;11.134;2023-02-11T04:12:28;7.18;;;5.18;;
1811;SDS011;904;47.814;11.134;2023-02-11T04:14:58;10.40;;;6.05;;
1811;SDS011;904;47.814;11.134;2023-02-11T04:17:25;13.95;;;7.03;;
1811;SDS011;904;47.814;11.134;2023-02-11T04:19:52;16.40;;;9.40;;
1811;SDS011;904;47.814;11.134;2023-02-11T04:22:21;11.60;;;6.68;;
1811;SDS011;904;47.814;11.134;2023-02-11T04:24:49;11.52;;;7.53;;
1811;SDS011;904;47.814;11.134;2023-02-11T04:27:16;13.90;;;7.47;;
1811;SDS011;904;47.814;11.134;2023-02-11T04:29:44;14.20;;;7.50;;
1811;SDS011;904;47.814;11.134;2023-02-11T04:32:11;12.43;;;6.30;;
1811;SDS011;904;47.814;11.134;2023-02-11T04:34:38;9.27;;;6.00;;
1811;SDS011;904;47.814;11.134;2023-02-11T04:37:05;10.40;;;6.85;;
1811;SDS011;904;47.814;11.134;2023-02-11T04:39:36;12.10;;;6.30;;
1811;SDS011;904;47.814;11.134;2023-02-11T04:42:03;10.32;;;5.95;;
1811;SDS011;904;47.814;11.134;2023-02-11T04:44:30;10.77;;;5.80;;
1811;SDS011;904;47.814;11.134;2023-02-11T04:46:57;10.93;;;6.20;;
1811;SDS011;904;47.814;11.134;2023-02-11T04:49:26;7.88;;;5.15;;
1811;SDS011;904;47.814;11.134;2023-02-11T04:51:54;12.05;;;6.72;;
1811;SDS011;904;47.814;11.134;2023-02-11T04:54:21;10.13;;;5.75;;
1811;SDS011;904;47.814;11.134;2023-02-11T04:56:50;12.35;;;6.15;;
1811;SDS011;904;47.814;11.134;2023-02-11T04:59:18;10.38;;;5.15;;
1811;SDS011;904;47.814;11.134;2023-02-11T05:01:45;9.75;;;5.68;;
1811;SDS011;904;47.814;11.134;2023-02-11T05:04:15;8.32;;;5.78;;
1811;SDS011;904;47.814;11.134;2023-02-11T05:06:43;8.38;;;5.93;;
1811;SDS011;904;47.814;11.134;2023-02-11T05:09:13;11.02;;;6.47;;
1811;SDS011;904;47.814;11.134;2023-02-11T05:11:41;10.77;;;6.47;;
1811;SDS011;904;47.814;11.134;2023-02-11T05:14:10;9.75;;;6.03;;
1811;SDS011;904;47.814;11.134;2023-02-11T05:16:38;8.20;;;5.57;;
1811;SDS011;904;47.814;11.134;2023-02-11T05:19:05;13.35;;;5.60;;
1811;SDS011;904;47.814;11.134;2023-02-11T05:21:37;8.50;;;6.05;;
1811;SDS011;904;47.814;11.134;2023-02-11T05:24:10;11.10;;;5.25;;
1811;SDS011;904;47.814;11.134;2023-02-11T05:26:39;11.60;;;5.30;;
1811;SDS011;904;47.814;11.134;2023-02-11T05:29:06;7.80;;;5.18;;
1811;SDS011;904;47.814;11.134;2023-02-11T05:31:35;7.63;;;5.03;;
1811;SDS011;904;47.814;11.134;2023-02-11T05:34:02;9.80;;;5.57;;
1811;SDS011;904;47.814;11.134;2023-02-11T05:36:29;7.28;;;4.55;;
1811;SDS011;904;47.814;11.134;2023-02-11T05:38:56;7.15;;;4.78;;
1811;SDS011;904;47.814;11.134;2023-02-11T05:41:23;7.75;;;4.93;;
1811;SDS011;904;47.814;11.134;2023-02-11T05:43:50;7.95;;;5.10;;
1811;SDS011;904;47.814;11.134;2023-02-11T05:46:17;7.40;;;4.32;;
1811;SDS011;904;47.814;11.134;2023-02-11T05:48:45;7.10;;;5.00;;
1811;SDS011;904;47.814;11.134;2023-02-11T05:51:12;6.95;;;5.15;;
1811;SDS011;904;47.814;11.134;2023-02-11T05:53:39;11.02;;;6.28;;
1811;SDS011;904;47.814;11.134;2023-02-11T05:56:06;10.23;;;5.80;;
1811;SDS011;904;47.814;11.134;2023-02-11T05:58:34;7.30;;;4.32;;
1811;SDS011;904;47.814;11.134;2023-02-11T06:01:02;10.38;;;4.47;;
1811;SDS011;904;47.814;11.134;2023-02-11T06:03:30;6.65;;;4.55;;
1811;SDS011;904;47.814;11.134;2023-02-11T06:05:58;10.43;;;5.25;;
1811;SDS011;904;47.814;11.134;2023-02-11T06:08:27;9.95;;;5.20;;
1811;SDS011;904;47.814;11.134;2023-02-11T06:10:53;11.35;;;6.05;;
1811;SDS011;904;47.814;11.134;2023-02-11T06:13:20;11.43;;;5.93;;
1811;SDS011;904;47.814;11.134;2023-02-11T06:15:54;11.45;;;6.10;;
1811;SDS011;904;47.814;11.134;2023-02-11T06:18:21;12.90;;;5.22;;
1811;SDS011;904;47.814;11.134;2023-02-11T06:20:48;14.65;;;6.28;;
1811;SDS011;904;47.814;11.134;2023-02-11T06:23:17;13.57;;;7.65;;
1811;SDS011;904;47.814;11.134;2023-02-11T06:25:44;21.08;;;8.82;;
1811;SDS011;904;47.814;11.134;2023-02-11T06:28:11;12.30;;;7.60;;
1811;SDS011;904;47.814;11.134;2023-02-11T06:30:40;12.45;;;8.65;;
1811;SDS011;904;47.814;11.134;2023-02-11T06:33:07;15.85;;;11.40;;
1811;SDS011;904;47.814;11.134;2023-02-11T06:35:34;12.77;;;9.25;;
1811;SDS011;904;47.814;11.134;2023-02-11T06:38:03;16.00;;;9.68;;
1811;SDS011;904;47.814;11.134;2023-02-11T06:40:31;18.75;;;11.32;;
1811;SDS011;904;47.814;11.134;2023-02-11T06:42:58;15.13;;;9.40;;
1811;SDS011;904;47.814;11.134;2023-02-11T06:45:25;17.38;;;8.18;;
1811;SDS011;904;47.814;11.134;2023-02-11T06:47:52;14.32;;;8.65;;
1811;SDS011;904;47.814;11.134;2023-02-11T06:50:19;11.13;;;8.18;;
1811;SDS011;904;47.814;11.134;2023-02-11T06:52:46;16.92;;;7.30;;
1811;SDS011;904;47.814;11.134;2023-02-11T06:55:13;9.60;;;5.90;;
1811;SDS011;904;47.814;11.134;2023-02-11T06:57:42;10.25;;;4.68;;
1811;SDS011;904;47.814;11.134;2023-02-11T07:00:09;9.38;;;5.32;;
1811;SDS011;904;47.814;11.134;2023-02-11T07:02:37;6.05;;;4.20;;
1811;SDS011;904;47.814;11.134;2023-02-11T07:05:04;8.25;;;4.45;;
1811;SDS011;904;47.814;11.134;2023-02-11T07:07:32;7.85;;;4.82;;
1811;SDS011;904;47.814;11.134;2023-02-11T07:09:59;11.85;;;5.22;;
1811;SDS011;904;47.814;11.134;2023-02-11T07:12:28;8.95;;;5.88;;
1811;SDS011;904;47.814;11.134;2023-02-11T07:15:01;8.70;;;6.18;;
1811;SDS011;904;47.814;11.134;2023-02-11T07:17:28;9.20;;;6.10;;
1811;SDS011;904;47.814;11.134;2023-02-11T07:19:57;14.18;;;7.13;;
1811;SDS011;904;47.814;11.134;2023-02-11T07:22:52;13.25;;;8.60;;
1811;SDS011;904;47.814;11.134;2023-02-11T07:25:20;10.95;;;8.55;;
1811;SDS011;904;47.814;11.134;2023-02-11T07:27:47;12.98;;;8.32;;
1811;SDS011;904;47.814;11.134;2023-02-11T07:30:17;13.18;;;7.47;;
1811;SDS011;904;47.814;11.134;2023-02-11T07:32:44;12.23;;;7.45;;
1811;SDS011;904;47.814;11.134;2023-02-11T07:35:12;12.10;;;8.68;;
1811;SDS011;904;47.814;11.134;2023-02-11T07:37:40;14.50;;;9.38;;
1811;SDS011;904;47.814;11.134;2023-02-11T07:40:07;14.43;;;9.23;;
1811;SDS011;904;47.814;11.134;2023-02-11T07:42:35;18.45;;;10.80;;
1811;SDS011;904;47.814;11.134;2023-02-11T07:45:05;16.48;;;6.85;;
1811;SDS011;904;47.814;11.134;2023-02-11T07:47:34;16.30;;;7.57;;
1811;SDS011;904;47.814;11.134;2023-02-11T07:50:02;35.13;;;19.85;;
1811;SDS011;904;47.814;11.134;2023-02-11T07:52:31;18.42;;;12.15;;
1811;SDS011;904;47.814;11.134;2023-02-11T07:54:58;15.38;;;10.32;;
1811;SDS011;904;47.814;11.134;2023-02-11T07:57:25;16.00;;;8.52;;
1811;SDS011;904;47.814;11.134;2023-02-11T07:59:52;12.10;;;6.18;;
1811;SDS011;904;47.814;11.134;2023-02-11T08:02:23;7.82;;;5.80;;
1811;SDS011;904;47.814;11.134;2023-02-11T08:04:52;9.80;;;5.90;;
1811;SDS011;904;47.814;11.134;2023-02-11T08:07:19;10.15;;;6.20;;
1811;SDS011;904;47.814;11.134;2023-02-11T08:09:46;12.77;;;5.97;;
1811;SDS011;904;47.814;11.134;2023-02-11T08:12:18;8.35;;;5.55;;
1811;SDS011;904;47.814;11.134;2023-02-11T08:14:49;12.95;;;5.15;;
1811;SDS011;904;47.814;11.134;2023-02-11T08:17:16;9.43;;;5.03;;
1811;SDS011;904;47.814;11.134;2023-02-11T08:19:43;10.20;;;5.65;;
1811;SDS011;904;47.814;11.134;2023-02-11T08:22:17;7.43;;;4.82;;
1811;SDS011;904;47.814;11.134;2023-02-11T08:24:44;8.68;;;5.68;;
1811;SDS011;904;47.814;11.134;2023-02-11T08:27:13;9.45;;;6.18;;
1811;SDS011;904;47.814;11.134;2023-02-11T08:29:42;7.65;;;5.35;;
1811;SDS011;904;47.814;11.134;2023-02-11T08:32:09;8.35;;;4.50;;
1811;SDS011;904;47.814;11.134;2023-02-11T08:34:36;6.88;;;4.28;;
1811;SDS011;904;47.814;11.134;2023-02-11T08:37:07;6.47;;;4.18;;
1811;SDS011;904;47.814;11.134;2023-02-11T08:39:37;7.70;;;4.40;;
1811;SDS011;904;47.814;11.134;2023-02-11T08:42:04;10.27;;;5.78;;
1811;SDS011;904;47.814;11.134;2023-02-11T08:44:32;8.30;;;5.03;;
1811;SDS011;904;47.814;11.134;2023-02-11T08:46:59;9.68;;;6.63;;
1811;SDS011;904;47.814;11.134;2023-02-11T08:49:26;11.95;;;6.60;;
1811;SDS011;904;47.814;11.134;2023-02-11T08:51:55;8.30;;;4.60;;
1811;SDS011;904;47.814;11.134;2023-02-11T08:54:26;7.90;;;5.57;;
1811;SDS011;904;47.814;11.134;2023-02-11T08:56:55;10.60;;;6.10;;
1811;SDS011;904;47.814;11.134;2023-02-11T08:59:23;7.25;;;5.10;;
1811;SDS011;904;47.814;11.134;2023-02-11T09:01:50;6.28;;;4.22;;
1811;SDS011;904;47.814;11.134;2023-02-11T09:04:17;7.05;;;3.92;;
1811;SDS011;904;47.814;11.134;2023-02-11T09:06:45;9.18;;;4.07;;
1811;SDS011;904;47.814;11.134;2023-02-11T09:09:15;10.65;;;6.05;;
1811;SDS011;904;47.814;11.134;2023-02-11T09:11:42;10.25;;;6.63;;
1811;SDS011;904;47.814;11.134;2023-02-11T09:14:16;18.10;;;8.15;;
1811;SDS011;904;47.814;11.134;2023-02-11T09:16:45;16.25;;;8.70;;
1811;SDS011;904;47.814;11.134;2023-02-11T09:19:13;8.98;;;6.10;;
1811;SDS011;904;47.814;11.134;2023-02-11T09:21:41;15.50;;;10.35;;
1811;SDS011;904;47.814;11.134;2023-02-11T09:24:09;18.25;;;10.55;;
1811;SDS011;904;47.814;11.134;2023-02-11T09:26:40;12.82;;;8.95;;
1811;SDS011;904;47.814;11.134;2023-02-11T09:29:08;9.30;;;6.22;;
1811;SDS011;904;47.814;11.134;2023-02-11T09:31:37;8.98;;;4.82;;
1811;SDS011;904;47.814;11.134;2023-02-11T09:34:05;6.45;;;5.18;;
1811;SDS011;904;47.814;11.134;2023-02-11T09:36:34;6.50;;;3.92;;
1811;SDS011;904;47.814;11.134;2023-02-11T09:39:03;8.63;;;5.53;;
1811;SDS011;904;47.814;11.134;2023-02-11T09:41:34;7.80;;;5.25;;
1811;SDS011;904;47.814;11.134;2023-02-11T09:44:16;12.85;;;7.32;;
1811;SDS011;904;47.814;11.134;2023-02-11T09:46:52;7.53;;;5.18;;
1811;SDS011;904;47.814;11.134;2023-02-11T09:49:23;9.85;;;5.25;;
1811;SDS011;904;47.814;11.134;2023-02-11T09:52:01;6.95;;;3.80;;
1811;SDS011;904;47.814;11.134;2023-02-11T09:54:33;5.95;;;4.10;;
1811;SDS011;904;47.814;11.134;2023-02-11T09:57:04;8.95;;;4.15;;
1811;SDS011;904;47.814;11.134;2023-02-11T09:59:37;6.80;;;4.70;;
1811;SDS011;904;47.814;11.134;2023-02-11T10:02:14;9.23;;;5.90;;
1811;SDS011;904;47.814;11.134;2023-02-11T10:05:04;7.70;;;5.18;;
1811;SDS011;904;47.814;11.134;2023-02-11T10:07:47;7.72;;;4.65;;
1811;SDS011;904;47.814;11.134;2023-02-11T10:10:28;8.73;;;4.88;;
1811;SDS011;904;47.814;11.134;2023-02-11T10:13:18;9.20;;;6.35;;
1811;SDS011;904;47.814;11.134;2023-02-11T10:16:04;10.32;;;7.63;;
1811;SDS011;904;47.814;11.134;2023-02-11T10:18:43;5.95;;;4.25;;
1811;SDS011;904;47.814;11.134;2023-02-11T10:21:18;7.75;;;3.22;;
1811;SDS011;904;47.814;11.134;2023-02-11T10:24:08;5.82;;;3.35;;
1811;SDS011;904;47.814;11.134;2023-02-11T10:26:38;8.23;;;4.68;;
1811;SDS011;904;47.814;11.134;2023-02-11T10:29:10;10.02;;;5.82;;
1811;SDS011;904;47.814;11.134;2023-02-11T10:31:51;6.68;;;3.95;;
1811;SDS011;904;47.814;11.134;2023-02-11T10:34:21;6.57;;;4.25;;
1811;SDS011;904;47.814;11.134;2023-02-11T10:36:55;5.75;;;3.42;;
1811;SDS011;904;47.814;11.134;2023-02-11T10:39:24;6.75;;;3.78;;
1811;SDS011;904;47.814;11.134;2023-02-11T10:41:53;6.55;;;4.22;;
1811;SDS011;904;47.814;11.134;2023-02-11T10:44:25;5.32;;;3.50;;
1811;SDS011;904;47.814;11.134;2023-02-11T10:47:02;5.95;;;2.90;;
1811;SDS011;904;47.814;11.134;2023-02-11T10:49:37;5.90;;;3.85;;
1811;SDS011;904;47.814;11.134;2023-02-11T10:52:13;6.90;;;3.03;;
1811;SDS011;904;47.814;11.134;2023-02-11T10:54:54;8.40;;;3.80;;
1811;SDS011;904;47.814;11.134;2023-02-11T10:57:25;6.00;;;2.83;;
1811;SDS011;904;47.814;11.134;2023-02-11T10:59:57;4.82;;;3.05;;
1811;SDS011;904;47.814;11.134;2023-02-11T11:02:27;4.40;;;2.80;;
1811;SDS011;904;47.814;11.134;2023-02-11T11:05:00;4.30;;;3.13;;
1811;SDS011;904;47.814;11.134;2023-02-11T11:07:31;10.18;;;4.32;;
1811;SDS011;904;47.814;11.134;2023-02-11T11:10:04;4.95;;;3.38;;
1811;SDS011;904;47.814;11.134;2023-02-11T11:12:35;7.15;;;4.57;;
1811;SDS011;904;47.814;11.134;2023-02-11T11:15:15;7.40;;;4.72;;
1811;SDS011;904;47.814;11.134;2023-02-11T11:18:07;8.05;;;3.55;;
1811;SDS011;904;47.814;11.134;2023-02-11T11:20:43;7.00;;;3.40;;
1811;SDS011;904;47.814;11.134;2023-02-11T11:23:22;7.38;;;4.47;;
1811;SDS011;904;47.814;11.134;2023-02-11T11:25:59;6.20;;;3.80;;
1811;SDS011;904;47.814;11.134;2023-02-11T11:28:30;7.97;;;3.55;;
1811;SDS011;904;47.814;11.134;2023-02-11T11:31:03;5.22;;;3.70;;
1811;SDS011;904;47.814;11.134;2023-02-11T11:33:39;7.10;;;3.85;;
1811;SDS011;904;47.814;11.134;2023-02-11T11:36:14;4.90;;;3.28;;
1811;SDS011;904;47.814;11.134;2023-02-11T11:38:47;6.32;;;3.50;;
1811;SDS011;904;47.814;11.134;2023-02-11T11:41:19;6.18;;;4.15;;
1811;SDS011;904;47.814;11.134;2023-02-11T11:43:57;6.93;;;3.63;;
1811;SDS011;904;47.814;11.134;2023-02-11T11:46:28;5.85;;;2.97;;
1811;SDS011;904;47.814;11.134;2023-02-11T11:49:00;8.80;;;4.55;;
1811;SDS011;904;47.814;11.134;2023-02-11T11:51:41;5.43;;;3.47;;
1811;SDS011;904;47.814;11.134;2023-02-11T11:54:14;8.15;;;4.60;;
1811;SDS011;904;47.814;11.134;2023-02-11T11:56:50;9.35;;;4.20;;
1811;SDS011;904;47.814;11.134;2023-02-11T11:59:23;10.93;;;4.60;;
1811;SDS011;904;47.814;11.134;2023-02-11T12:01:54;5.45;;;3.63;;
1811;SDS011;904;47.814;11.134;2023-02-11T12:04:35;6.18;;;3.97;;
1811;SDS011;904;47.814;11.134;2023-02-11T12:07:25;7.20;;;3.65;;
1811;SDS011;904;47.814;11.134;2023-02-11T12:12:57;15.00;;;5.88;;
1811;SDS011;904;47.814;11.134;2023-02-11T12:15:35;7.57;;;4.30;;
1811;SDS011;904;47.814;11.134;2023-02-11T12:18:16;10.70;;;4.75;;
1811;SDS011;904;47.814;11.134;2023-02-11T12:21:09;9.15;;;3.90;;
1811;SDS011;904;47.814;11.134;2023-02-11T12:23:49;4.53;;;2.88;;
1811;SDS011;904;47.814;11.134;2023-02-11T12:26:28;9.10;;;3.80;;
1811;SDS011;904;47.814;11.134;2023-02-11T12:29:02;5.65;;;4.10;;
1811;SDS011;904;47.814;11.134;2023-02-11T12:31:40;8.80;;;3.72;;
1811;SDS011;904;47.814;11.134;2023-02-11T12:34:22;7.85;;;3.22;;
1811;SDS011;904;47.814;11.134;2023-02-11T12:37:13;10.00;;;4.20;;
1811;SDS011;904;47.814;11.134;2023-02-11T12:39:53;6.20;;;4.07;;
1811;SDS011;904;47.814;11.134;2023-02-11T12:42:33;6.95;;;3.58;;
1811;SDS011;904;47.814;11.134;2023-02-11T12:45:32;5.53;;;3.58;;
1811;SDS011;904;47.814;11.134;2023-02-11T12:51:04;5.70;;;3.47;;
1811;SDS011;904;47.814;11.134;2023-02-11T12:53:44;6.72;;;3.47;;
1811;SDS011;904;47.814;11.134;2023-02-11T12:56:30;8.20;;;4.75;;
1811;SDS011;904;47.814;11.134;2023-02-11T12:59:04;4.88;;;3.08;;
1811;SDS011;904;47.814;11.134;2023-02-11T13:01:39;8.50;;;4.15;;
1811;SDS011;904;47.814;11.134;2023-02-11T13:04:10;5.55;;;3.25;;
1811;SDS011;904;47.814;11.134;2023-02-11T13:06:44;5.97;;;3.05;;
1811;SDS011;904;47.814;11.134;2023-02-11T13:09:17;6.00;;;3.10;;
1811;SDS011;904;47.814;11.134;2023-02-11T13:11:53;5.13;;;3.40;;
1811;SDS011;904;47.814;11.134;2023-02-11T13:14:53;9.45;;;3.25;;
1811;SDS011;904;47.814;11.134;2023-02-11T13:17:26;5.60;;;2.70;;
1811;SDS011;904;47.814;11.134;2023-02-11T13:20:00;12.07;;;4.03;;
1811;SDS011;904;47.814;11.134;2023-02-11T13:22:34;4.22;;;2.67;;
1811;SDS011;904;47.814;11.134;2023-02-11T13:25:14;6.90;;;2.60;;
1811;SDS011;904;47.814;11.134;2023-02-11T13:27:53;5.90;;;3.13;;
1811;SDS011;904;47.814;11.134;2023-02-11T13:30:26;4.03;;;3.00;;
1811;SDS011;904;47.814;11.134;2023-02-11T13:33:04;5.00;;;3.00;;
1811;SDS011;904;47.814;11.134;2023-02-11T13:36:09;7.33;;;3.33;;
1811;SDS011;904;47.814;11.134;2023-02-11T13:38:39;4.90;;;2.63;;
1811;SDS011;904;47.814;11.134;2023-02-11T13:41:14;4.43;;;2.73;;
1811;SDS011;904;47.814;11.134;2023-02-11T13:43:44;5.13;;;3.40;;
1811;SDS011;904;47.814;11.134;2023-02-11T13:46:24;6.27;;;4.37;;
1811;SDS011;904;47.814;11.134;2023-02-11T13:48:56;4.33;;;2.37;;
1811;SDS011;904;47.814;11.134;2023-02-11T13:51:34;3.50;;;2.40;;
1811;SDS011;904;47.814;11.134;2023-02-11T13:54:03;3.17;;;2.20;;
1811;SDS011;904;47.814;11.134;2023-02-11T13:56:38;3.33;;;2.57;;
1811;SDS011;904;47.814;11.134;2023-02-11T14:02:23;4.50;;;2.57;;
1811;SDS011;904;47.814;11.134;2023-02-11T14:08:23;5.93;;;3.50;;
1811;SDS011;904;47.814;11.134;2023-02-11T14:14:14;4.07;;;2.27;;
1811;SDS011;904;47.814;11.134;2023-02-11T14:19:53;4.30;;;2.10;;
1811;SDS011;904;47.814;11.134;2023-02-11T14:22:22;5.50;;;2.83;;
1811;SDS011;904;47.814;11.134;2023-02-11T14:24:52;7.17;;;3.77;;
1811;SDS011;904;47.814;11.134;2023-02-11T14:27:23;8.60;;;3.90;;
1811;SDS011;904;47.814;11.134;2023-02-11T14:32:53;5.13;;;3.33;;
1811;SDS011;904;47.814;11.134;2023-02-11T14:36:04;5.03;;;2.35;;
1811;SDS011;904;47.814;11.134;2023-02-11T14:38:44;4.40;;;2.60;;
1811;SDS011;904;47.814;11.134;2023-02-11T14:41:23;6.50;;;3.10;;
1811;SDS011;904;47.814;11.134;2023-02-11T14:43:54;3.97;;;2.63;;
1811;SDS011;904;47.814;11.134;2023-02-11T14:46:23;8.60;;;4.90;;
1811;SDS011;904;47.814;11.134;2023-02-11T14:48:55;12.43;;;5.78;;
1811;SDS011;904;47.814;11.134;2023-02-11T14:51:27;6.03;;;4.22;;
1811;SDS011;904;47.814;11.134;2023-02-11T14:53:57;5.88;;;3.95;;
1811;SDS011;904;47.814;11.134;2023-02-11T14:56:30;7.45;;;5.05;;
1811;SDS011;904;47.814;11.134;2023-02-11T14:58:58;6.85;;;4.53;;
1811;SDS011;904;47.814;11.134;2023-02-11T15:01:28;6.20;;;4.78;;
1811;SDS011;904;47.814;11.134;2023-02-11T15:03:58;5.85;;;4.00;;
1811;SDS011;904;47.814;11.134;2023-02-11T15:06:29;23.35;;;5.75;;
1811;SDS011;904;47.814;11.134;2023-02-11T15:08:58;8.48;;;5.10;;
1811;SDS011;904;47.814;11.134;2023-02-11T15:11:37;5.65;;;4.40;;
1811;SDS011;904;47.814;11.134;2023-02-11T15:14:16;5.97;;;4.47;;
1811;SDS011;904;47.814;11.134;2023-02-11T15:16:48;6.88;;;4.50;;
1811;SDS011;904;47.814;11.134;2023-02-11T15:19:19;8.02;;;4.60;;
1811;SDS011;904;47.814;11.134;2023-02-11T15:21:50;8.65;;;4.60;;
1811;SDS011;904;47.814;11.134;2023-02-11T15:24:21;7.32;;;6.28;;
1811;SDS011;904;47.814;11.134;2023-02-11T15:26:57;10.52;;;7.32;;
1811;SDS011;904;47.814;11.134;2023-02-11T15:29:26;8.60;;;6.35;;
1811;SDS011;904;47.814;11.134;2023-02-11T15:32:03;7.45;;;5.20;;
1811;SDS011;904;47.814;11.134;2023-02-11T15:34:32;7.25;;;6.05;;
1811;SDS011;904;47.814;11.134;2023-02-11T15:37:00;13.68;;;7.40;;
1811;SDS011;904;47.814;11.134;2023-02-11T15:39:29;11.40;;;7.53;;
1811;SDS011;904;47.814;11.134;2023-02-11T15:42:14;10.88;;;7.05;;
1811;SDS011;904;47.814;11.134;2023-02-11T15:44:43;8.40;;;6.30;;
1811;SDS011;904;47.814;11.134;2023-02-11T15:47:11;7.88;;;6.25;;
1811;SDS011;904;47.814;11.134;2023-02-11T15:49:44;5.90;;;4.88;;
1811;SDS011;904;47.814;11.134;2023-02-11T15:52:14;12.60;;;4.22;;
1811;SDS011;904;47.814;11.134;2023-02-11T15:54:50;7.32;;;4.20;;
1811;SDS011;904;47.814;11.134;2023-02-11T15:57:20;4.88;;;3.67;;
1811;SDS011;904;47.814;11.134;2023-02-11T15:59:48;15.32;;;4.43;;
1811;SDS011;904;47.814;11.134;2023-02-11T16:02:18;5.65;;;4.43;;